Time;durP1;ratioP1;P1;durP2;ratioP2;P2;SDS_P1;SDS_P2;PMS_P1;PMS_P2;Temp;Humidity;BMP_temperature;BMP_pressure;BME280_temperature;BME280_humidity;BME280_pressure;Samples;Min_cycle;Max_cycle;Signal;HPM_P1;HPM_P2
2021/01/16 00:00:35;;;;;;;17.15;13.43;;;3.60;94.20;;;;;;2094892;28;20032;-76
2021/01/16 00:01:35;;;;;;;16.13;12.35;;;3.60;94.10;;;;;;2094968;28;20463;-75
2021/01/16 00:02:36;;;;;;;16.60;12.70;;;3.60;94.20;;;;;;2095418;28;20052;-75
2021/01/16 00:03:36;;;;;;;17.55;13.18;;;3.60;94.20;;;;;;2095358;28;20670;-75
2021/01/16 00:04:37;;;;;;;14.77;11.55;;;3.60;94.10;;;;;;2095702;28;20020;-74
2021/01/16 00:05:38;;;;;;;16.00;11.90;;;3.60;94.20;;;;;;2095114;28;20021;-75
2021/01/16 00:06:39;;;;;;;18.45;12.68;;;3.70;94.30;;;;;;2095791;28;20453;-75
2021/01/16 00:07:40;;;;;;;18.85;13.65;;;3.60;94.30;;;;;;2102694;28;20092;-75
2021/01/16 00:08:42;;;;;;;16.27;11.73;;;3.60;94.20;;;;;;2098439;28;20013;-75
2021/01/16 00:09:43;;;;;;;17.05;13.82;;;3.60;94.20;;;;;;2094904;28;20020;-74
2021/01/16 00:10:51;;;;;;;19.05;14.48;;;3.70;94.30;;;;;;2095518;28;20013;-76
2021/01/16 00:11:52;;;;;;;17.48;13.15;;;3.60;94.00;;;;;;2095868;28;20021;-75
2021/01/16 00:12:53;;;;;;;17.52;12.70;;;3.60;93.90;;;;;;2096113;28;20420;-75
2021/01/16 00:13:53;;;;;;;17.42;12.90;;;3.60;93.80;;;;;;2095433;28;20824;-74
2021/01/16 00:14:54;;;;;;;18.80;12.70;;;3.70;93.80;;;;;;2094155;28;20024;-75
2021/01/16 00:15:55;;;;;;;16.17;13.38;;;3.60;93.80;;;;;;2102073;28;20035;-75
2021/01/16 00:16:56;;;;;;;18.08;14.13;;;3.70;93.80;;;;;;2096570;28;20082;-74
2021/01/16 00:17:58;;;;;;;18.02;13.45;;;3.70;93.80;;;;;;2094832;28;20388;-76
2021/01/16 00:18:59;;;;;;;17.95;13.20;;;3.60;93.80;;;;;;2094915;28;20531;-75
2021/01/16 00:19:59;;;;;;;17.65;13.95;;;3.60;93.90;;;;;;2095506;28;20044;-74
2021/01/16 00:21:00;;;;;;;16.88;13.13;;;3.60;94.00;;;;;;2095913;28;20028;-75
2021/01/16 00:22:01;;;;;;;17.70;13.02;;;3.60;94.10;;;;;;2095685;28;20111;-74
2021/01/16 00:23:03;;;;;;;17.52;13.02;;;3.70;94.20;;;;;;2095708;28;20025;-74
2021/01/16 00:24:04;;;;;;;18.73;14.68;;;3.70;94.60;;;;;;2094439;28;20041;-75
2021/01/16 00:25:05;;;;;;;15.50;12.90;;;3.60;94.30;;;;;;2100749;28;20030;-76
2021/01/16 00:26:06;;;;;;;17.83;13.15;;;3.70;94.20;;;;;;2102968;28;20095;-75
2021/01/16 00:27:06;;;;;;;19.73;13.60;;;3.60;94.10;;;;;;2095547;28;20037;-75
2021/01/16 00:28:13;;;;;;;17.25;12.38;;;3.60;94.00;;;;;;2095276;28;20028;-76
2021/01/16 00:29:14;;;;;;;17.45;12.57;;;3.60;94.00;;;;;;2093895;28;20029;-75
2021/01/16 00:30:16;;;;;;;17.88;12.70;;;3.60;94.20;;;;;;2095725;28;20023;-75
2021/01/16 00:31:17;;;;;;;20.52;14.13;;;3.60;94.30;;;;;;2103684;28;20020;-75
2021/01/16 00:32:17;;;;;;;18.63;13.13;;;3.60;94.40;;;;;;2099209;28;20021;-75
2021/01/16 00:33:24;;;;;;;16.80;12.70;;;3.60;94.60;;;;;;2103423;28;20070;-75
2021/01/16 00:34:24;;;;;;;18.33;13.35;;;3.50;94.60;;;;;;2099548;28;20008;-76
2021/01/16 00:35:27;;;;;;;20.48;14.00;;;3.50;94.50;;;;;;2104014;28;20032;-75
2021/01/16 00:36:28;;;;;;;17.25;13.52;;;3.50;94.40;;;;;;2100487;28;20658;-75
2021/01/16 00:37:28;;;;;;;20.23;14.60;;;3.50;94.40;;;;;;2103758;28;20020;-76
2021/01/16 00:38:30;;;;;;;22.20;14.10;;;3.50;94.50;;;;;;2098893;28;20468;-74
2021/01/16 00:39:31;;;;;;;20.95;14.40;;;3.50;94.40;;;;;;2105360;28;20390;-75
2021/01/16 00:40:32;;;;;;;19.48;14.20;;;3.50;94.40;;;;;;2100665;28;20035;-74
2021/01/16 00:41:32;;;;;;;18.08;13.77;;;3.40;94.50;;;;;;2105250;28;20017;-74
2021/01/16 00:42:33;;;;;;;20.52;14.20;;;3.40;94.60;;;;;;2100039;28;20016;-75
2021/01/16 00:43:34;;;;;;;19.20;14.73;;;3.40;94.60;;;;;;2104620;28;20449;-76
2021/01/16 00:44:34;;;;;;;17.92;14.45;;;3.50;94.60;;;;;;2103521;28;20071;-76
2021/01/16 00:45:35;;;;;;;20.15;13.82;;;3.40;94.70;;;;;;2104165;28;20069;-76
2021/01/16 00:46:35;;;;;;;20.05;14.73;;;3.40;94.60;;;;;;2100161;28;20023;-76
2021/01/16 00:47:38;;;;;;;20.95;14.68;;;3.50;94.60;;;;;;2105150;28;20028;-76
2021/01/16 00:48:39;;;;;;;19.42;13.75;;;3.50;94.70;;;;;;2104577;28;20032;-75
2021/01/16 00:49:40;;;;;;;15.70;12.18;;;3.50;94.70;;;;;;2105029;28;20117;-74
2021/01/16 00:50:41;;;;;;;19.52;13.55;;;3.50;94.80;;;;;;2100919;28;20097;-75
2021/01/16 00:51:44;;;;;;;18.17;13.13;;;3.50;94.90;;;;;;2104872;28;20085;-75
2021/01/16 00:52:58;;;;;;;20.52;14.45;;;3.50;94.90;;;;;;2105439;28;20371;-74
2021/01/16 00:53:59;;;;;;;15.90;13.65;;;3.50;94.90;;;;;;2104882;28;20486;-74
2021/01/16 00:55:00;;;;;;;16.17;12.13;;;3.50;94.90;;;;;;2105228;28;20059;-76
2021/01/16 00:56:00;;;;;;;19.77;14.45;;;3.50;94.90;;;;;;2105154;28;20099;-75
2021/01/16 00:57:01;;;;;;;17.02;13.63;;;3.50;94.80;;;;;;2104866;28;20024;-75
2021/01/16 00:58:18;;;;;;;16.52;11.77;;;3.60;94.80;;;;;;2101641;28;20786;-75
2021/01/16 00:59:18;;;;;;;18.23;13.27;;;3.60;94.70;;;;;;2105330;28;20024;-76
2021/01/16 01:00:25;;;;;;;16.08;12.65;;;3.60;94.70;;;;;;2105233;28;20050;-73
2021/01/16 01:01:25;;;;;;;19.25;14.13;;;3.60;94.80;;;;;;2105356;28;20611;-76
2021/01/16 01:02:26;;;;;;;21.08;14.02;;;3.60;94.80;;;;;;2099441;28;20020;-75
2021/01/16 01:03:26;;;;;;;18.50;13.55;;;3.60;94.80;;;;;;2104767;28;20535;-76
2021/01/16 01:04:27;;;;;;;16.83;12.68;;;3.60;94.80;;;;;;2105028;28;20032;-76
2021/01/16 01:05:28;;;;;;;18.92;13.82;;;3.60;94.80;;;;;;2099349;28;20550;-77
2021/01/16 01:06:29;;;;;;;19.65;14.40;;;3.60;94.80;;;;;;2095914;28;20020;-76
2021/01/16 01:07:29;;;;;;;18.58;12.70;;;3.60;94.80;;;;;;2096441;28;20029;-76
2021/01/16 01:08:30;;;;;;;17.77;13.27;;;3.60;94.90;;;;;;2096047;28;20501;-76
2021/01/16 01:09:31;;;;;;;15.23;12.10;;;3.60;94.90;;;;;;2096507;28;20016;-77
2021/01/16 01:10:36;;;;;;;20.10;14.00;;;3.60;94.90;;;;;;2096950;28;20015;-76
2021/01/16 01:11:36;;;;;;;17.60;13.00;;;3.60;94.90;;;;;;2097117;28;20052;-76
2021/01/16 01:12:38;;;;;;;17.48;12.77;;;3.60;94.90;;;;;;2096611;28;20025;-76
2021/01/16 01:13:39;;;;;;;17.10;12.82;;;3.60;95.00;;;;;;2097823;28;20013;-75
2021/01/16 01:14:40;;;;;;;20.70;13.75;;;3.60;95.00;;;;;;2104046;28;20020;-76
2021/01/16 01:15:40;;;;;;;17.55;13.40;;;3.70;95.00;;;;;;2096969;28;20371;-75
2021/01/16 01:16:41;;;;;;;16.80;12.93;;;3.60;94.90;;;;;;2097185;28;20078;-76
2021/01/16 01:17:42;;;;;;;15.75;12.80;;;3.60;94.90;;;;;;2096182;28;20012;-75
2021/01/16 01:18:42;;;;;;;17.65;12.90;;;3.60;94.90;;;;;;2095865;28;20041;-75
2021/01/16 01:19:44;;;;;;;20.63;13.90;;;3.60;94.90;;;;;;2096421;28;20937;-78
2021/01/16 01:20:44;;;;;;;16.42;12.73;;;3.60;94.70;;;;;;2096706;28;20016;-76
2021/01/16 01:21:45;;;;;;;19.67;13.60;;;3.60;94.80;;;;;;2096737;28;20021;-77
2021/01/16 01:22:47;;;;;;;17.23;12.75;;;3.60;94.80;;;;;;2095704;28;20463;-75
2021/01/16 01:23:47;;;;;;;19.52;13.75;;;3.60;94.90;;;;;;2102032;28;20016;-76
2021/01/16 01:24:48;;;;;;;17.90;13.80;;;3.60;95.00;;;;;;2100706;28;20130;-75
2021/01/16 01:25:48;;;;;;;17.08;13.30;;;3.60;95.00;;;;;;2096671;28;20021;-75
2021/01/16 01:26:49;;;;;;;18.58;13.98;;;3.60;94.90;;;;;;2095700;28;20040;-75
2021/01/16 01:27:55;;;;;;;18.98;13.85;;;3.60;94.90;;;;;;2096634;28;20029;-75
2021/01/16 01:28:56;;;;;;;16.83;13.55;;;3.70;94.90;;;;;;2096435;28;20048;-76
2021/01/16 01:29:56;;;;;;;15.85;12.57;;;3.60;94.90;;;;;;2096193;28;20442;-76
2021/01/16 01:30:57;;;;;;;14.75;11.80;;;3.60;94.90;;;;;;2096077;28;20023;-76
2021/01/16 01:31:57;;;;;;;15.75;11.98;;;3.60;95.00;;;;;;2096718;28;20052;-76
2021/01/16 01:32:59;;;;;;;14.80;12.18;;;3.60;95.00;;;;;;2096479;28;20021;-76
2021/01/16 01:34:00;;;;;;;16.77;12.88;;;3.60;95.10;;;;;;2099750;28;20510;-75
2021/01/16 01:35:01;;;;;;;17.58;12.13;;;3.60;95.10;;;;;;2097745;28;20021;-75
2021/01/16 01:36:01;;;;;;;19.02;13.48;;;3.70;95.20;;;;;;2101870;28;20032;-76
2021/01/16 01:37:02;;;;;;;16.58;12.65;;;3.70;95.10;;;;;;2095287;28;20127;-77
2021/01/16 01:38:02;;;;;;;18.85;12.80;;;3.70;95.10;;;;;;2095616;28;20090;-75
2021/01/16 01:39:04;;;;;;;14.70;11.68;;;3.60;95.10;;;;;;2096802;28;20039;-76
2021/01/16 01:40:05;;;;;;;15.43;12.57;;;3.70;95.20;;;;;;2096074;28;20033;-76
2021/01/16 01:41:06;;;;;;;16.58;12.80;;;3.70;95.20;;;;;;2095858;28;20056;-76
2021/01/16 01:42:06;;;;;;;16.25;11.77;;;3.70;95.10;;;;;;2096091;28;20078;-75
2021/01/16 01:43:07;;;;;;;16.13;12.35;;;3.60;95.10;;;;;;2096313;28;20047;-75
2021/01/16 01:44:08;;;;;;;17.50;13.43;;;3.70;95.20;;;;;;2096994;28;20062;-75
2021/01/16 01:45:10;;;;;;;17.83;13.13;;;3.60;95.00;;;;;;2095908;28;20516;-75
2021/01/16 01:46:11;;;;;;;15.73;12.60;;;3.60;95.00;;;;;;2095813;28;20116;-75
2021/01/16 01:47:14;;;;;;;15.82;11.98;;;3.60;95.10;;;;;;2095062;28;20028;-75
2021/01/16 01:48:15;;;;;;;16.25;12.93;;;3.60;95.10;;;;;;2095899;28;20106;-75
2021/01/16 01:49:15;;;;;;;18.95;12.82;;;3.60;95.00;;;;;;2095967;28;20078;-76
2021/01/16 01:50:18;;;;;;;15.98;12.10;;;3.60;95.00;;;;;;2096075;28;20029;-76
2021/01/16 01:51:20;;;;;;;15.05;11.80;;;3.70;95.10;;;;;;2096578;28;20020;-75
2021/01/16 01:52:21;;;;;;;18.10;13.48;;;3.60;95.10;;;;;;2100560;28;20031;-76
2021/01/16 01:53:23;;;;;;;17.58;14.00;;;3.60;95.00;;;;;;2104241;28;20027;-74
2021/01/16 01:54:25;;;;;;;20.23;15.10;;;3.60;95.00;;;;;;2104153;28;20103;-75
2021/01/16 01:55:27;;;;;;;18.75;13.30;;;3.60;95.00;;;;;;2101992;28;20112;-75
2021/01/16 01:56:31;;;;;;;23.42;15.18;;;3.60;94.90;;;;;;2096452;28;20059;-76
2021/01/16 01:57:38;;;;;;;16.27;12.68;;;3.60;94.90;;;;;;2095731;28;20135;-75
2021/01/16 01:58:41;;;;;;;17.35;13.93;;;3.60;94.90;;;;;;2096513;28;20357;-76
2021/01/16 01:59:44;;;;;;;19.83;14.00;;;3.60;94.90;;;;;;2095834;28;20027;-76
2021/01/16 02:00:46;;;;;;;15.23;12.70;;;3.60;94.80;;;;;;2096070;28;20032;-75
2021/01/16 02:01:50;;;;;;;19.17;12.63;;;3.60;94.90;;;;;;2096592;28;20032;-76
2021/01/16 02:02:52;;;;;;;16.08;12.48;;;3.60;95.00;;;;;;2103198;28;20039;-75
2021/01/16 02:03:55;;;;;;;20.05;13.48;;;3.60;95.10;;;;;;2098305;28;20029;-75
2021/01/16 02:04:58;;;;;;;17.70;13.48;;;3.70;95.20;;;;;;2095869;28;20039;-75
2021/01/16 02:05:59;;;;;;;17.45;13.52;;;3.60;95.20;;;;;;2103270;28;20024;-75
2021/01/16 02:07:00;;;;;;;18.50;13.65;;;3.60;95.20;;;;;;2103875;28;20407;-76
2021/01/16 02:08:01;;;;;;;19.40;13.98;;;3.60;95.20;;;;;;2103953;28;20441;-76
2021/01/16 02:09:03;;;;;;;20.30;14.80;;;3.60;95.20;;;;;;2104467;28;20032;-75
2021/01/16 02:10:09;;;;;;;19.95;14.48;;;3.70;95.20;;;;;;2101729;28;20115;-76
2021/01/16 02:11:12;;;;;;;17.27;14.02;;;3.60;95.20;;;;;;2096684;28;20032;-75
2021/01/16 02:12:13;;;;;;;17.40;13.75;;;3.60;95.30;;;;;;2096206;28;20028;-75
2021/01/16 02:13:14;;;;;;;18.05;13.10;;;3.60;95.30;;;;;;2096051;28;20059;-76
2021/01/16 02:14:15;;;;;;;19.88;14.32;;;3.60;95.30;;;;;;2095941;28;20040;-75
2021/01/16 02:15:25;;;;;;;18.83;14.18;;;3.60;95.30;;;;;;2096607;28;20495;-75
2021/01/16 02:16:47;;;;;;;;;;;3.60;95.30;;;;;;2099397;28;20028;-75
2021/01/16 02:17:54;;;;;;;14.85;12.05;;;3.50;95.30;;;;;;2096241;28;20351;-74
2021/01/16 02:18:57;;;;;;;18.55;13.23;;;3.50;95.50;;;;;;2096132;28;20108;-76
2021/01/16 02:19:58;;;;;;;18.27;13.45;;;3.50;95.40;;;;;;2101467;28;20407;-76
2021/01/16 02:21:01;;;;;;;21.35;14.63;;;3.50;95.30;;;;;;2104018;28;20024;-75
2021/01/16 02:22:05;;;;;;;20.00;13.80;;;3.50;95.40;;;;;;2095826;28;20051;-75
2021/01/16 02:23:12;;;;;;;20.95;14.38;;;3.50;95.40;;;;;;2097090;28;20031;-76
2021/01/16 02:24:19;;;;;;;18.92;14.52;;;3.60;95.40;;;;;;2096059;28;20020;-74
2021/01/16 02:25:48;;;;;;;15.15;12.35;;;3.50;95.30;;;;;;2097031;28;20111;-75
2021/01/16 02:27:01;;;;;;;19.67;14.05;;;3.50;95.40;;;;;;2102955;28;20021;-76
2021/01/16 02:28:05;;;;;;;18.05;13.63;;;3.50;95.40;;;;;;2099125;28;20391;-74
2021/01/16 02:29:08;;;;;;;16.95;13.65;;;3.50;95.40;;;;;;2096252;28;20060;-75
2021/01/16 02:30:10;;;;;;;18.23;13.65;;;3.50;95.50;;;;;;2096286;28;20025;-74
2021/01/16 02:31:11;;;;;;;18.35;14.07;;;3.50;95.40;;;;;;2100399;28;20387;-74
2021/01/16 02:32:16;;;;;;;17.63;13.93;;;3.60;95.40;;;;;;2104586;28;20078;-74
2021/01/16 02:33:22;;;;;;;18.15;13.43;;;3.50;95.30;;;;;;2104304;28;20047;-76
2021/01/16 02:34:26;;;;;;;20.98;14.23;;;3.50;95.60;;;;;;2104218;28;20085;-75
2021/01/16 02:35:28;;;;;;;20.05;14.18;;;3.60;95.30;;;;;;2104082;28;20027;-76
2021/01/16 02:36:41;;;;;;;16.15;13.65;;;3.50;95.40;;;;;;2103320;28;20035;-74
2021/01/16 02:37:56;;;;;;;21.45;13.32;;;3.60;95.50;;;;;;2104419;28;20016;-75
2021/01/16 02:39:30;;;;;;;17.25;13.57;;;3.50;95.50;;;;;;2103480;28;20024;-74
2021/01/16 02:40:35;;;;;;;18.08;13.70;;;3.50;95.40;;;;;;2095900;28;20024;-75
2021/01/16 02:41:51;;;;;;;18.92;13.02;;;3.50;95.40;;;;;;2096390;28;20017;-76
2021/01/16 02:43:22;;;;;;;15.93;12.30;;;3.50;95.50;;;;;;2095867;28;20454;-75
2021/01/16 02:44:44;;;;;;;17.95;13.15;;;3.50;95.60;;;;;;2101789;28;20026;-74
2021/01/16 02:46:06;;;;;;;18.23;13.82;;;3.50;95.70;;;;;;2104385;28;20020;-75
2021/01/16 02:47:13;;;;;;;18.15;13.80;;;3.50;95.80;;;;;;2103295;28;20111;-76
2021/01/16 02:48:20;;;;;;;18.65;13.65;;;3.50;95.80;;;;;;2103391;28;20094;-75
2021/01/16 02:49:37;;;;;;;20.67;13.75;;;3.50;95.80;;;;;;2103846;28;20359;-75
2021/01/16 02:50:48;;;;;;;19.58;13.82;;;3.50;95.80;;;;;;2100872;28;20027;-75
2021/01/16 02:52:04;;;;;;;18.98;12.38;;;3.50;95.90;;;;;;2096533;28;20028;-75
2021/01/16 02:53:07;;;;;;;17.20;13.43;;;3.50;95.90;;;;;;2095822;28;20356;-75
2021/01/16 02:54:10;;;;;;;17.52;13.68;;;3.50;95.90;;;;;;2097326;28;20025;-76
2021/01/16 02:55:11;;;;;;;17.85;14.25;;;3.50;95.90;;;;;;2087781;28;20596;-75
2021/01/16 02:56:17;;;;;;;24.85;14.82;;;3.50;95.80;;;;;;2104033;28;20110;-74
2021/01/16 02:57:17;;;;;;;20.60;14.10;;;3.50;95.80;;;;;;2099658;28;20020;-75
2021/01/16 02:58:18;;;;;;;16.05;13.02;;;3.50;95.80;;;;;;2103290;28;20032;-75
2021/01/16 02:59:19;;;;;;;15.68;11.43;;;3.50;96.20;;;;;;2104415;28;20061;-75
2021/01/16 03:00:21;;;;;;;15.90;11.88;;;3.50;95.90;;;;;;2104448;28;20090;-76
2021/01/16 03:01:22;;;;;;;19.40;13.85;;;3.50;96.00;;;;;;2105645;28;20028;-75
2021/01/16 03:02:23;;;;;;;16.50;12.90;;;3.50;96.00;;;;;;2105558;28;20057;-75
2021/01/16 03:03:23;;;;;;;17.02;13.35;;;3.50;96.00;;;;;;2105182;28;20074;-76
2021/01/16 03:04:24;;;;;;;15.68;13.40;;;3.50;96.00;;;;;;2105025;28;20556;-75
2021/01/16 03:05:24;;;;;;;20.63;14.07;;;3.50;96.00;;;;;;2091429;28;20051;-75
2021/01/16 03:06:25;;;;;;;18.08;12.90;;;3.50;96.00;;;;;;2096706;28;20024;-75
2021/01/16 03:07:28;;;;;;;19.25;13.50;;;3.50;96.00;;;;;;2096915;28;20055;-75
2021/01/16 03:08:29;;;;;;;20.25;13.98;;;3.50;96.00;;;;;;2096768;28;20013;-76
2021/01/16 03:09:31;;;;;;;20.25;14.63;;;3.50;95.90;;;;;;2096463;28;20029;-75
2021/01/16 03:10:32;;;;;;;18.35;14.25;;;3.50;95.90;;;;;;2088422;28;20032;-75
2021/01/16 03:11:34;;;;;;;18.25;14.02;;;3.50;95.90;;;;;;2096728;28;20718;-76
2021/01/16 03:12:35;;;;;;;17.20;13.15;;;3.50;95.80;;;;;;2097167;28;20020;-75
2021/01/16 03:13:36;;;;;;;18.55;12.75;;;3.60;95.90;;;;;;2099325;28;20028;-75
2021/01/16 03:14:47;;;;;;;19.70;13.40;;;3.60;95.90;;;;;;2104152;28;20032;-75
2021/01/16 03:15:48;;;;;;;20.20;14.38;;;3.60;95.90;;;;;;2096893;28;20017;-75
2021/01/16 03:17:16;;;;;;;18.67;13.82;;;3.50;95.90;;;;;;2095503;28;20012;-76
2021/01/16 03:18:23;;;;;;;17.50;13.45;;;3.50;96.00;;;;;;2095221;28;20410;-76
2021/01/16 03:19:29;;;;;;;18.02;13.43;;;3.50;96.00;;;;;;2097117;28;20375;-75
2021/01/16 03:20:30;;;;;;;18.55;13.60;;;3.50;95.90;;;;;;2096287;28;20021;-74
2021/01/16 03:21:31;;;;;;;15.52;12.50;;;3.50;95.90;;;;;;2096291;28;20009;-74
2021/01/16 03:22:31;;;;;;;18.45;12.98;;;3.50;95.90;;;;;;2096230;28;20028;-75
2021/01/16 03:23:32;;;;;;;19.13;13.68;;;3.50;95.90;;;;;;2100633;28;20432;-75
2021/01/16 03:24:33;;;;;;;16.77;11.93;;;3.60;96.00;;;;;;2102821;28;20031;-76
2021/01/16 03:25:34;;;;;;;18.67;13.98;;;3.60;95.90;;;;;;2097447;28;20044;-75
2021/01/16 03:26:35;;;;;;;16.85;13.23;;;3.60;95.80;;;;;;2096871;28;20012;-77
2021/01/16 03:27:35;;;;;;;17.80;13.15;;;3.50;95.50;;;;;;2096758;28;20606;-76
2021/01/16 03:28:36;;;;;;;18.02;13.35;;;3.50;95.50;;;;;;2096614;28;20020;-75
2021/01/16 03:29:37;;;;;;;17.63;12.85;;;3.50;95.50;;;;;;2096658;28;20100;-75
2021/01/16 03:30:37;;;;;;;16.65;12.10;;;3.50;95.50;;;;;;2096159;28;20103;-75
2021/01/16 03:31:38;;;;;;;17.40;13.40;;;3.50;95.50;;;;;;2097303;28;20031;-75
2021/01/16 03:32:40;;;;;;;17.33;13.10;;;3.60;95.60;;;;;;2097012;28;20056;-76
2021/01/16 03:33:40;;;;;;;17.52;13.40;;;3.50;95.60;;;;;;2099654;28;20028;-75
2021/01/16 03:34:43;;;;;;;16.20;11.82;;;3.60;95.60;;;;;;2098993;28;20078;-76
2021/01/16 03:35:44;;;;;;;16.30;12.02;;;3.50;95.70;;;;;;2097295;28;20025;-76
2021/01/16 03:36:44;;;;;;;14.02;11.50;;;3.60;95.80;;;;;;2096471;28;20029;-75
2021/01/16 03:37:45;;;;;;;18.25;13.13;;;3.60;95.80;;;;;;2097275;28;20521;-76
2021/01/16 03:38:45;;;;;;;17.63;12.00;;;3.50;95.60;;;;;;2096352;28;20030;-75
2021/01/16 03:39:46;;;;;;;15.57;11.43;;;3.50;95.60;;;;;;2097417;28;20012;-74
2021/01/16 03:40:47;;;;;;;17.05;12.45;;;3.60;95.70;;;;;;2096882;28;20024;-76
2021/01/16 03:41:47;;;;;;;18.77;13.75;;;3.50;95.60;;;;;;2102359;28;20374;-75
2021/01/16 03:42:48;;;;;;;16.42;11.77;;;3.60;95.50;;;;;;2098636;28;20027;-75
2021/01/16 03:43:49;;;;;;;16.92;11.98;;;3.60;95.50;;;;;;2096715;28;20066;-75
2021/01/16 03:44:49;;;;;;;16.15;11.65;;;3.60;95.50;;;;;;2096067;28;20025;-75
2021/01/16 03:45:50;;;;;;;18.13;12.88;;;3.50;95.40;;;;;;2096424;28;20047;-76
2021/01/16 03:46:51;;;;;;;15.77;12.80;;;3.50;95.30;;;;;;2096584;28;20025;-75
2021/01/16 03:47:51;;;;;;;17.10;12.05;;;3.60;95.30;;;;;;2096968;28;20764;-75
2021/01/16 03:48:52;;;;;;;14.85;11.57;;;3.60;95.20;;;;;;2095796;28;20136;-75
2021/01/16 03:49:52;;;;;;;14.55;11.13;;;3.50;95.30;;;;;;2096571;28;20032;-75
2021/01/16 03:50:53;;;;;;;17.35;12.82;;;3.50;95.40;;;;;;2097925;28;20024;-74
2021/01/16 03:51:54;;;;;;;18.30;12.85;;;3.50;95.40;;;;;;2104733;28;20459;-74
2021/01/16 03:52:55;;;;;;;14.00;10.88;;;3.50;95.50;;;;;;2096712;28;20127;-75
2021/01/16 03:53:55;;;;;;;17.83;12.48;;;3.50;95.50;;;;;;2100709;28;20479;-75
2021/01/16 03:54:56;;;;;;;15.02;11.68;;;3.50;95.50;;;;;;2105361;28;20035;-75
2021/01/16 03:55:57;;;;;;;17.38;13.07;;;3.50;95.50;;;;;;2104598;28;20032;-75
2021/01/16 03:56:58;;;;;;;16.85;12.38;;;3.60;95.50;;;;;;2104151;28;20110;-75
2021/01/16 03:57:58;;;;;;;19.48;13.07;;;3.60;95.50;;;;;;2104781;28;20024;-75
2021/01/16 03:58:59;;;;;;;19.05;12.88;;;3.60;95.60;;;;;;2105095;28;20112;-74
2021/01/16 04:00:00;;;;;;;18.10;13.60;;;3.60;95.60;;;;;;2105425;28;20437;-75
2021/01/16 04:01:01;;;;;;;15.32;11.77;;;3.60;95.60;;;;;;2105206;28;20031;-75
2021/01/16 04:02:01;;;;;;;18.38;13.43;;;3.60;95.60;;;;;;2104493;28;20482;-75
2021/01/16 04:03:02;;;;;;;16.45;12.80;;;3.60;95.60;;;;;;2104489;28;20089;-75
2021/01/16 04:04:03;;;;;;;18.30;13.40;;;3.60;95.60;;;;;;2103914;28;20494;-74
2021/01/16 04:05:04;;;;;;;17.73;13.48;;;3.60;95.50;;;;;;2104572;28;20060;-75
2021/01/16 04:06:05;;;;;;;19.95;14.07;;;3.60;95.40;;;;;;2104110;28;20421;-75
2021/01/16 04:07:07;;;;;;;18.13;13.52;;;3.50;95.40;;;;;;2103762;28;20073;-75
2021/01/16 04:08:07;;;;;;;18.48;13.23;;;3.60;95.40;;;;;;2104028;28;20030;-76
2021/01/16 04:09:08;;;;;;;18.02;12.68;;;3.60;95.40;;;;;;2104309;28;20054;-76
2021/01/16 04:10:09;;;;;;;19.92;12.43;;;3.50;95.30;;;;;;2104374;28;20032;-75
2021/01/16 04:11:10;;;;;;;17.35;11.88;;;3.50;95.40;;;;;;2104285;28;21774;-76
2021/01/16 04:12:11;;;;;;;16.75;12.23;;;3.60;95.50;;;;;;2105777;28;20050;-76
2021/01/16 04:13:12;;;;;;;17.63;13.27;;;3.60;95.50;;;;;;2105692;28;20024;-76
2021/01/16 04:14:12;;;;;;;16.85;12.80;;;3.50;95.40;;;;;;2105477;28;20028;-75
2021/01/16 04:15:13;;;;;;;16.83;12.57;;;3.50;95.40;;;;;;2105850;28;20413;-76
2021/01/16 04:16:14;;;;;;;18.15;13.40;;;3.50;95.40;;;;;;2105870;28;20012;-75
2021/01/16 04:17:15;;;;;;;16.80;13.27;;;3.60;95.50;;;;;;2105153;28;20051;-76
2021/01/16 04:18:15;;;;;;;16.13;13.18;;;3.50;95.40;;;;;;2105432;28;20148;-76
2021/01/16 04:19:16;;;;;;;19.65;14.32;;;3.50;95.40;;;;;;2105464;28;20039;-75
2021/01/16 04:20:16;;;;;;;20.73;13.82;;;3.50;95.40;;;;;;2098062;28;20021;-75
2021/01/16 04:21:17;;;;;;;17.13;11.93;;;3.60;95.50;;;;;;2090185;28;20559;-75
2021/01/16 04:22:18;;;;;;;17.13;12.90;;;3.60;95.50;;;;;;2103182;28;20043;-76
2021/01/16 04:23:19;;;;;;;17.02;12.95;;;3.60;95.40;;;;;;2105424;28;20035;-76
2021/01/16 04:24:19;;;;;;;17.60;13.20;;;3.50;95.30;;;;;;2105333;28;20146;-76
2021/01/16 04:25:20;;;;;;;18.85;13.85;;;3.50;95.30;;;;;;2097261;28;20069;-75
2021/01/16 04:26:20;;;;;;;17.50;12.68;;;3.50;95.30;;;;;;2097514;28;20020;-75
2021/01/16 04:27:21;;;;;;;19.75;13.52;;;3.50;95.30;;;;;;2096740;28;20032;-75
2021/01/16 04:28:22;;;;;;;17.10;11.90;;;3.50;95.30;;;;;;2103289;28;20111;-74
2021/01/16 04:29:22;;;;;;;17.20;12.63;;;3.50;95.30;;;;;;2104246;28;20086;-75
2021/01/16 04:30:23;;;;;;;15.68;12.43;;;3.50;95.30;;;;;;2105759;28;20024;-75
2021/01/16 04:31:24;;;;;;;16.90;12.82;;;3.50;95.20;;;;;;2099805;28;20542;-75
2021/01/16 04:32:24;;;;;;;16.80;13.45;;;3.50;95.30;;;;;;2097265;28;20043;-75
2021/01/16 04:33:25;;;;;;;16.20;12.40;;;3.50;95.20;;;;;;2101630;28;20051;-76
2021/01/16 04:34:26;;;;;;;15.75;12.13;;;3.50;95.30;;;;;;2105391;28;20391;-76
2021/01/16 04:35:26;;;;;;;16.05;12.52;;;3.60;95.50;;;;;;2105299;28;20115;-76
2021/01/16 04:36:27;;;;;;;19.35;13.57;;;3.50;95.20;;;;;;2098624;28;20029;-76
2021/01/16 04:37:27;;;;;;;17.73;12.98;;;3.50;95.10;;;;;;2096872;28;20036;-76
2021/01/16 04:38:28;;;;;;;15.93;12.27;;;3.50;95.10;;;;;;2096392;28;20028;-77
2021/01/16 04:39:29;;;;;;;18.58;13.13;;;3.60;95.10;;;;;;2097462;28;20020;-75
2021/01/16 04:40:30;;;;;;;15.18;12.73;;;3.50;95.00;;;;;;2105505;28;20036;-75
2021/01/16 04:41:31;;;;;;;15.65;12.20;;;3.60;95.00;;;;;;2097313;28;20028;-75
2021/01/16 04:42:31;;;;;;;17.38;12.82;;;3.60;95.00;;;;;;2100680;28;20528;-75
2021/01/16 04:43:32;;;;;;;14.73;11.98;;;3.60;95.10;;;;;;2105223;28;20130;-75
2021/01/16 04:44:35;;;;;;;18.50;13.13;;;3.60;95.10;;;;;;2105326;28;20028;-75
2021/01/16 04:45:37;;;;;;;15.85;11.50;;;3.50;95.00;;;;;;2103532;28;20032;-75
2021/01/16 04:46:38;;;;;;;17.38;12.70;;;3.50;95.00;;;;;;2097335;28;20012;-77
2021/01/16 04:47:41;;;;;;;15.60;12.18;;;3.50;94.90;;;;;;2096341;28;20031;-76
2021/01/16 04:48:44;;;;;;;15.30;11.85;;;3.60;94.90;;;;;;2096753;28;20027;-75
2021/01/16 04:49:45;;;;;;;16.83;12.35;;;3.60;95.00;;;;;;2099652;28;20042;-76
2021/01/16 04:50:49;;;;;;;17.25;13.00;;;3.60;94.90;;;;;;2100338;28;20024;-76
2021/01/16 04:51:52;;;;;;;16.58;12.35;;;3.60;94.90;;;;;;2097118;28;20035;-75
2021/01/16 04:53:03;;;;;;;17.60;12.02;;;3.60;94.90;;;;;;2097169;28;20025;-75
2021/01/16 04:54:04;;;;;;;16.92;11.73;;;3.60;95.00;;;;;;2102006;28;20024;-76
2021/01/16 04:55:08;;;;;;;18.10;13.15;;;3.50;95.00;;;;;;2105088;28;20024;-76
2021/01/16 04:56:09;;;;;;;19.38;13.00;;;3.60;95.00;;;;;;2105317;28;20020;-76
2021/01/16 04:57:13;;;;;;;17.05;12.32;;;3.50;95.00;;;;;;2105067;28;20036;-75
2021/01/16 04:58:13;;;;;;;19.83;12.57;;;3.60;95.00;;;;;;2105168;28;20067;-75
2021/01/16 04:59:15;;;;;;;17.23;11.73;;;3.60;95.00;;;;;;2104757;28;20028;-76
2021/01/16 05:00:16;;;;;;;16.65;12.63;;;3.60;94.90;;;;;;2102327;28;20036;-76
2021/01/16 05:01:20;;;;;;;21.60;12.73;;;3.60;94.90;;;;;;2097065;28;20056;-75
2021/01/16 05:02:24;;;;;;;15.52;12.05;;;3.60;94.90;;;;;;2097067;28;20029;-76
2021/01/16 05:03:27;;;;;;;16.42;11.73;;;3.60;94.90;;;;;;2096861;28;20020;-75
2021/01/16 05:04:31;;;;;;;18.38;13.05;;;3.50;94.60;;;;;;2096440;28;20032;-76
2021/01/16 05:05:33;;;;;;;16.30;12.40;;;3.50;94.50;;;;;;2096930;28;20032;-75
2021/01/16 05:06:40;;;;;;;16.60;11.77;;;3.60;94.60;;;;;;2097650;28;20074;-75
2021/01/16 05:07:40;;;;;;;16.10;11.75;;;3.50;94.50;;;;;;2104698;28;20023;-74
2021/01/16 05:08:42;;;;;;;17.80;12.85;;;3.50;94.40;;;;;;2104923;28;20020;-75
2021/01/16 05:09:44;;;;;;;17.23;11.85;;;3.50;94.50;;;;;;2104518;28;20024;-76
2021/01/16 05:10:48;;;;;;;15.88;12.32;;;3.50;94.60;;;;;;2096570;28;20025;-76
2021/01/16 05:12:11;;;;;;;15.10;11.80;;;3.50;94.70;;;;;;2101323;28;20020;-75
2021/01/16 05:13:16;;;;;;;15.63;11.35;;;3.50;94.70;;;;;;2104979;28;20113;-75
2021/01/16 05:14:18;;;;;;;15.57;11.38;;;3.50;94.70;;;;;;2105386;28;20085;-75
2021/01/16 05:15:27;;;;;;;14.65;10.82;;;3.50;94.70;;;;;;2104884;28;20024;-75
2021/01/16 05:16:44;;;;;;;15.27;10.88;;;3.50;94.80;;;;;;2105359;28;20016;-74
2021/01/16 05:17:52;;;;;;;14.95;11.88;;;3.50;94.70;;;;;;2105510;28;20024;-74
2021/01/16 05:18:53;;;;;;;16.20;12.57;;;3.50;94.50;;;;;;2104810;28;20104;-75
2021/01/16 05:19:56;;;;;;;18.13;11.65;;;3.50;94.50;;;;;;2101513;28;20039;-75
2021/01/16 05:20:56;;;;;;;16.48;11.98;;;3.50;94.40;;;;;;2096960;28;20024;-75
2021/01/16 05:21:58;;;;;;;18.15;11.48;;;3.50;94.20;;;;;;2096402;28;20021;-75
2021/01/16 05:23:17;;;;;;;17.50;12.13;;;3.50;94.30;;;;;;2095736;28;20021;-75